createdAt,value
2022-12-08T00:01:25.795Z,1.88
2022-12-08T00:03:52.410Z,1.94
2022-12-08T00:06:45.796Z,1.97
2022-12-08T00:09:24.183Z,2.00
2022-12-08T00:11:59.196Z,2.05
2022-12-08T00:14:34.454Z,2.06
2022-12-08T00:17:01.349Z,2.08
2022-12-08T00:19:28.238Z,2.07
2022-12-08T00:21:55.545Z,2.09
2022-12-08T00:24:24.380Z,2.09
2022-12-08T00:26:51.134Z,2.10
2022-12-08T00:29:18.404Z,2.11
2022-12-08T00:31:45.042Z,2.10
2022-12-08T00:34:15.318Z,2.09
2022-12-08T00:36:42.211Z,2.06
2022-12-08T00:39:08.891Z,2.03
2022-12-08T00:41:53.778Z,1.99
2022-12-08T00:44:21.356Z,1.95
2022-12-08T00:47:01.066Z,1.91
2022-12-08T00:49:38.638Z,1.88
2022-12-08T00:52:13.725Z,1.84
2022-12-08T00:55:09.389Z,1.75
2022-12-08T00:57:37.162Z,1.66
2022-12-08T01:00:14.767Z,1.59
2022-12-08T01:02:57.470Z,1.51
2022-12-08T01:05:30.717Z,1.46
2022-12-08T01:08:02.045Z,1.38
2022-12-08T01:10:41.450Z,1.33
2022-12-08T01:13:19.493Z,1.27
2022-12-08T01:15:55.801Z,1.21
2022-12-08T01:18:31.930Z,1.16
2022-12-08T01:21:14.275Z,1.17
2022-12-08T01:23:51.034Z,1.15
2022-12-08T01:26:26.157Z,1.11
2022-12-08T01:29:02.610Z,1.05
2022-12-08T01:31:32.932Z,1.03
2022-12-08T01:34:08.853Z,1.02
2022-12-08T01:36:44.123Z,1.00
2022-12-08T01:39:29.260Z,0.98
2022-12-08T01:41:57.065Z,0.97
2022-12-08T01:44:23.380Z,0.93
2022-12-08T01:46:50.085Z,0.91
2022-12-08T01:49:28.115Z,0.85
2022-12-08T01:52:04.787Z,0.82
2022-12-08T01:54:39.873Z,0.79
2022-12-08T01:57:11.921Z,0.77
2022-12-08T01:59:43.773Z,0.76
2022-12-08T02:02:12.130Z,0.75
2022-12-08T02:04:38.964Z,0.72
2022-12-08T02:07:08.467Z,0.68
2022-12-08T02:09:36.522Z,0.65
2022-12-08T02:12:03.052Z,0.63
2022-12-08T02:14:29.578Z,0.60
2022-12-08T02:17:20.145Z,0.59
2022-12-08T02:20:01.073Z,0.58
2022-12-08T02:22:46.550Z,0.57
2022-12-08T02:25:28.057Z,0.53
2022-12-08T02:28:09.460Z,0.52
2022-12-08T02:31:16.722Z,0.51
2022-12-08T02:33:53.242Z,0.48
2022-12-08T02:36:29.274Z,0.47
2022-12-08T02:39:08.781Z,0.44
2022-12-08T02:41:59.610Z,0.41
2022-12-08T02:44:39.490Z,0.41
2022-12-08T02:47:11.760Z,0.40
2022-12-08T02:49:38.191Z,0.38
2022-12-08T02:52:13.458Z,0.36
2022-12-08T02:55:05.781Z,0.35
2022-12-08T02:57:59.585Z,0.33
2022-12-08T03:00:31.586Z,0.33
2022-12-08T03:03:32.896Z,0.32
2022-12-08T03:06:30.253Z,0.30
2022-12-08T03:09:10.424Z,0.29
2022-12-08T03:11:44.368Z,0.24
2022-12-08T03:14:16.146Z,0.23
2022-12-08T03:16:47.481Z,0.21
2022-12-08T03:19:19.976Z,0.21
2022-12-08T03:22:02.689Z,0.20
2022-12-08T03:24:37.895Z,0.15
2022-12-08T03:27:10.051Z,0.11
2022-12-08T03:29:36.898Z,0.10
2022-12-08T03:32:21.245Z,0.09
2022-12-08T03:34:49.804Z,0.09
2022-12-08T03:37:16.740Z,0.08
2022-12-08T03:39:43.633Z,0.08
2022-12-08T03:42:10.031Z,0.08
2022-12-08T03:44:36.421Z,0.06
2022-12-08T03:47:02.866Z,0.05
2022-12-08T03:49:29.302Z,0.06
2022-12-08T03:51:55.734Z,0.05
2022-12-08T03:54:22.174Z,0.04
2022-12-08T03:56:48.553Z,0.03
2022-12-08T03:59:14.991Z,0.02
2022-12-08T04:01:41.373Z,0.03
2022-12-08T04:04:07.855Z,0.03
2022-12-08T04:06:34.286Z,0.00
2022-12-08T04:09:00.754Z,-0.02
2022-12-08T04:11:27.167Z,-0.04
2022-12-08T04:13:53.601Z,-0.06
2022-12-08T04:16:25.258Z,-0.06
2022-12-08T04:18:56.038Z,-0.08
2022-12-08T04:21:29.424Z,-0.09
2022-12-08T04:24:03.009Z,-0.08
2022-12-08T04:26:33.913Z,-0.13
2022-12-08T04:29:15.314Z,-0.12
2022-12-08T04:31:43.137Z,-0.14
2022-12-08T04:34:16.450Z,-0.14
2022-12-08T04:36:44.515Z,-0.16
2022-12-08T04:39:12.121Z,-0.19
2022-12-08T04:41:49.986Z,-0.19
2022-12-08T04:44:21.585Z,-0.19
2022-12-08T04:46:53.701Z,-0.18
2022-12-08T04:49:26.580Z,-0.19
2022-12-08T04:51:58.954Z,-0.23
2022-12-08T04:54:29.360Z,-0.25
2022-12-08T04:57:06.195Z,-0.24
2022-12-08T04:59:50.340Z,-0.25
2022-12-08T05:02:17.802Z,-0.26
2022-12-08T05:05:00.737Z,-0.29
2022-12-08T05:07:37.979Z,-0.28
2022-12-08T05:10:21.403Z,-0.26
2022-12-08T05:12:53.636Z,-0.28
2022-12-08T05:18:52.294Z,-0.32
2022-12-08T05:21:18.676Z,-0.30
2022-12-08T05:23:45.118Z,-0.32
2022-12-08T05:26:11.488Z,-0.38
2022-12-08T05:28:42.612Z,-0.43
2022-12-08T05:33:51.184Z,-0.46
2022-12-08T05:36:18.922Z,-0.50
2022-12-08T05:38:46.201Z,-0.54
2022-12-08T05:41:18.627Z,-0.55
2022-12-08T05:43:45.203Z,-0.54
2022-12-08T05:46:12.004Z,-0.58
2022-12-08T05:48:39.114Z,-0.60
2022-12-08T05:51:09.519Z,-0.61
2022-12-08T05:53:35.958Z,-0.61
2022-12-08T05:56:02.359Z,-0.61
2022-12-08T05:58:28.897Z,-0.63
2022-12-08T06:00:55.258Z,-0.65
2022-12-08T06:03:21.796Z,-0.62
2022-12-08T06:05:48.503Z,-0.59
2022-12-08T06:08:16.219Z,-0.58
2022-12-08T06:10:44.349Z,-0.58
2022-12-08T06:13:10.786Z,-0.61
2022-12-08T06:15:37.967Z,-0.60
2022-12-08T06:18:05.628Z,-0.62
2022-12-08T06:20:32.220Z,-0.65
2022-12-08T06:22:58.640Z,-0.64
2022-12-08T06:25:25.640Z,-0.66
2022-12-08T06:27:52.263Z,-0.68
2022-12-08T06:30:18.743Z,-0.70
2022-12-08T06:32:45.138Z,-0.72
2022-12-08T06:35:11.562Z,-0.72
2022-12-08T06:37:37.999Z,-0.74
2022-12-08T06:40:04.965Z,-0.72
2022-12-08T06:42:43.744Z,-0.73
2022-12-08T06:45:12.044Z,-0.76
2022-12-08T06:47:38.429Z,-0.73
2022-12-08T06:50:06.558Z,-0.74
2022-12-08T06:52:33.282Z,-0.77
2022-12-08T06:55:01.106Z,-0.77
2022-12-08T06:57:27.560Z,-0.79
2022-12-08T06:59:54.010Z,-0.81
2022-12-08T07:02:20.486Z,-0.83
2022-12-08T07:04:47.015Z,-0.86
2022-12-08T07:07:13.445Z,-0.88
2022-12-08T07:09:41.183Z,-0.88
2022-12-08T07:12:07.849Z,-0.89
2022-12-08T07:14:34.328Z,-0.94
2022-12-08T07:17:02.199Z,-0.94
2022-12-08T07:19:28.619Z,-0.93
2022-12-08T07:21:55.090Z,-0.90
2022-12-08T07:24:21.684Z,-0.89
2022-12-08T07:26:48.097Z,-0.89
2022-12-08T07:29:14.509Z,-0.87
2022-12-08T07:31:41.006Z,-0.83
2022-12-08T07:34:07.572Z,-0.83
2022-12-08T07:36:34.035Z,-0.81
2022-12-08T07:39:00.607Z,-0.83
2022-12-08T07:41:27.106Z,-0.83
2022-12-08T07:43:53.941Z,-0.76
2022-12-08T07:46:22.660Z,-0.74
2022-12-08T07:48:49.295Z,-0.71
2022-12-08T07:51:16.695Z,-0.70
2022-12-08T07:53:50.027Z,-0.66
2022-12-08T07:56:19.828Z,-0.64
2022-12-08T07:58:46.829Z,-0.62
2022-12-08T08:01:24.211Z,-0.58
2022-12-08T08:03:50.880Z,-0.57
2022-12-08T08:06:17.331Z,-0.52
2022-12-08T08:08:43.733Z,-0.51
2022-12-08T08:11:19.006Z,-0.49
2022-12-08T08:13:47.807Z,-0.41
2022-12-08T08:16:14.262Z,-0.39
2022-12-08T08:18:41.058Z,-0.34
2022-12-08T08:21:43.213Z,-0.30
2022-12-08T08:23:54.280Z,-0.23
2022-12-08T08:26:20.673Z,-0.17
2022-12-08T08:28:48.212Z,-0.15
2022-12-08T08:31:14.775Z,-0.12
2022-12-08T08:33:41.407Z,-0.16
2022-12-08T08:36:09.274Z,-0.13
2022-12-08T08:38:39.327Z,-0.14
2022-12-08T08:41:11.895Z,-0.10
2022-12-08T08:43:39.044Z,-0.10
2022-12-08T08:46:08.936Z,-0.05
2022-12-08T08:48:36.182Z,-0.02
2022-12-08T08:51:10.548Z,0.06
2022-12-08T08:53:37.174Z,0.12
2022-12-08T08:56:05.209Z,0.19
2022-12-08T08:58:31.663Z,0.24
2022-12-08T09:00:58.220Z,0.30
2022-12-08T09:03:24.669Z,0.37
2022-12-08T09:05:51.427Z,0.40
2022-12-08T09:08:18.782Z,0.42
2022-12-08T09:10:45.502Z,0.45
2022-12-08T09:13:11.950Z,0.50
2022-12-08T09:15:38.754Z,0.57
2022-12-08T09:18:06.841Z,0.62
2022-12-08T09:20:34.988Z,0.68
2022-12-08T09:23:01.857Z,0.72
2022-12-08T09:25:28.649Z,0.80
2022-12-08T09:27:55.062Z,0.79
2022-12-08T09:30:21.705Z,0.85
2022-12-08T09:32:48.127Z,0.89
2022-12-08T09:35:14.593Z,0.96
2022-12-08T09:37:41.109Z,1.04
2022-12-08T09:40:08.463Z,1.11
2022-12-08T09:42:49.813Z,1.19
2022-12-08T09:45:17.776Z,1.32
2022-12-08T09:48:07.951Z,1.47
2022-12-08T09:50:40.428Z,1.55
2022-12-08T09:53:19.778Z,1.69
2022-12-08T09:56:22.722Z,1.79
2022-12-08T09:59:00.030Z,1.92
2022-12-08T10:01:32.982Z,2.08
2022-12-08T10:04:00.945Z,2.18
2022-12-08T10:06:41.478Z,2.29
2022-12-08T10:10:04.449Z,2.44
2022-12-08T10:12:40.564Z,2.59
2022-12-08T10:15:35.082Z,2.69
2022-12-08T10:18:08.195Z,2.74
2022-12-08T10:20:41.296Z,2.78
2022-12-08T10:23:10.383Z,2.87
2022-12-08T10:25:44.356Z,3.04
2022-12-08T10:28:11.294Z,3.21
2022-12-08T10:30:37.705Z,3.33
2022-12-08T10:33:04.362Z,3.43
2022-12-08T10:35:52.037Z,3.60
2022-12-08T10:38:22.452Z,3.86
2022-12-08T10:40:51.775Z,4.04
2022-12-08T10:43:22.858Z,4.21
2022-12-08T10:45:49.941Z,4.43
2022-12-08T10:48:23.016Z,4.56
2022-12-08T10:50:52.378Z,4.82
2022-12-08T10:53:30.559Z,5.11
2022-12-08T10:56:02.994Z,5.40
2022-12-08T10:58:41.110Z,5.59
2022-12-08T11:01:26.572Z,5.89
2022-12-08T11:03:53.027Z,5.92
2022-12-08T11:06:37.941Z,5.44
2022-12-08T11:09:21.935Z,5.17
2022-12-08T11:11:59.598Z,5.07
2022-12-08T11:14:32.290Z,4.82
2022-12-08T11:17:23.353Z,4.87
2022-12-08T11:20:10.198Z,4.87
2022-12-08T11:22:39.747Z,5.18
2022-12-08T11:25:39.199Z,5.09
2022-12-08T11:28:10.210Z,4.86
2022-12-08T11:30:47.887Z,4.63
2022-12-08T11:33:23.655Z,4.38
2022-12-08T11:35:57.764Z,4.22
2022-12-08T11:38:27.422Z,4.10
2022-12-08T11:40:59.474Z,4.00
2022-12-08T11:43:44.276Z,3.92
2022-12-08T11:46:24.015Z,3.82
2022-12-08T11:49:05.566Z,3.76
2022-12-08T11:51:40.525Z,3.70
2022-12-08T11:54:39.643Z,3.71
2022-12-08T11:57:12.768Z,3.72
2022-12-08T11:59:50.778Z,3.71
2022-12-08T12:02:19.750Z,3.70
2022-12-08T12:04:54.068Z,3.73
2022-12-08T12:07:41.895Z,3.74
2022-12-08T12:10:16.170Z,3.78
2022-12-08T12:12:45.743Z,3.79
2022-12-08T12:15:24.341Z,3.75
2022-12-08T12:17:50.891Z,3.74
2022-12-08T12:20:24.254Z,3.74
2022-12-08T12:22:58.695Z,3.77
2022-12-08T12:25:26.832Z,3.79
2022-12-08T12:27:59.293Z,3.81
2022-12-08T12:30:27.981Z,3.85
2022-12-08T12:33:00.346Z,3.85
2022-12-08T12:35:37.989Z,3.85
2022-12-08T12:38:33.803Z,3.84
2022-12-08T12:41:02.611Z,3.86
2022-12-08T12:43:33.613Z,3.87
2022-12-08T12:46:50.656Z,3.90
2022-12-08T12:49:55.878Z,3.90
2022-12-08T12:52:22.294Z,3.89
2022-12-08T12:54:51.739Z,3.85
2022-12-08T12:57:18.359Z,3.83
2022-12-08T13:00:08.640Z,3.81
2022-12-08T13:02:45.791Z,3.80
2022-12-08T13:05:35.447Z,3.76
2022-12-08T13:08:06.991Z,3.75
2022-12-08T13:10:39.757Z,3.73
2022-12-08T13:13:18.528Z,3.72
2022-12-08T13:16:07.621Z,3.70
2022-12-08T13:18:59.559Z,3.66
2022-12-08T13:21:34.997Z,3.62
2022-12-08T13:24:12.718Z,3.59
2022-12-08T13:27:14.710Z,3.54
2022-12-08T13:29:41.496Z,3.52
2022-12-08T13:32:07.988Z,3.50
2022-12-08T13:34:55.066Z,3.50
2022-12-08T13:37:42.181Z,3.47
2022-12-08T13:40:20.821Z,3.45
2022-12-08T13:43:18.165Z,3.45
2022-12-08T13:57:29.785Z,3.38
2022-12-08T14:00:29.593Z,3.37
2022-12-08T14:02:58.707Z,3.35
2022-12-08T14:05:48.056Z,3.33
2022-12-08T14:08:58.927Z,3.33
2022-12-08T14:11:37.608Z,3.34
2022-12-08T14:14:45.857Z,3.31
2022-12-08T14:17:11.710Z,3.30
2022-12-08T14:19:38.487Z,3.29
2022-12-08T14:22:17.069Z,3.27
2022-12-08T14:24:51.748Z,3.27
2022-12-08T14:27:26.921Z,3.24
2022-12-08T14:29:57.040Z,3.24
2022-12-08T14:32:27.606Z,3.23
2022-12-08T14:34:56.109Z,3.21
2022-12-08T14:37:25.001Z,3.22
2022-12-08T14:39:52.473Z,3.22
2022-12-08T14:42:24.890Z,3.19
2022-12-08T14:45:09.437Z,3.17
2022-12-08T14:47:36.006Z,3.15
2022-12-08T14:50:04.935Z,3.13
2022-12-08T14:52:32.061Z,3.12
2022-12-08T14:54:58.861Z,3.10
2022-12-08T14:57:33.578Z,3.08
2022-12-08T15:00:08.257Z,3.06
2022-12-08T15:02:44.009Z,3.05
2022-12-08T15:05:15.940Z,3.05
2022-12-08T15:07:51.972Z,3.03
2022-12-08T15:10:23.175Z,3.04
2022-12-08T15:13:20.838Z,3.04
2022-12-08T15:15:54.277Z,3.04
2022-12-08T15:18:42.341Z,3.02
2022-12-08T15:21:12.701Z,3.00
2022-12-08T15:23:42.618Z,2.99
2022-12-08T15:26:10.242Z,2.97
2022-12-08T15:28:36.833Z,2.96
2022-12-08T15:31:03.378Z,2.95
2022-12-08T15:33:29.987Z,2.94
2022-12-08T15:35:56.481Z,2.93
2022-12-08T15:38:28.866Z,2.93
2022-12-08T15:40:57.499Z,2.92
2022-12-08T15:43:24.453Z,2.92
2022-12-08T15:45:58.922Z,2.92
2022-12-08T15:48:28.411Z,2.91
2022-12-08T15:50:56.251Z,2.92
2022-12-08T15:53:22.841Z,2.92
2022-12-08T15:56:18.911Z,2.92
2022-12-08T15:58:54.712Z,2.88
2022-12-08T16:01:22.673Z,2.87
2022-12-08T16:09:43.453Z,2.84
2022-12-08T16:13:54.742Z,2.83
2022-12-08T16:15:53.040Z,2.85
2022-12-08T16:18:28.239Z,2.84
2022-12-08T16:21:23.852Z,2.84
2022-12-08T16:23:43.755Z,2.85
2022-12-08T16:26:31.800Z,2.82
2022-12-08T16:29:04.857Z,2.81
2022-12-08T16:31:31.799Z,2.81
2022-12-08T16:33:58.384Z,2.79
2022-12-08T16:36:24.907Z,2.78
2022-12-08T16:38:51.490Z,2.78
2022-12-08T16:41:37.115Z,2.80
2022-12-08T16:44:05.481Z,2.77
2022-12-08T16:46:32.409Z,2.75
2022-12-08T16:48:59.216Z,2.74
2022-12-08T16:51:27.216Z,2.72
2022-12-08T16:53:55.408Z,2.72
2022-12-08T16:56:25.134Z,2.70
2022-12-08T16:58:55.591Z,2.71
2022-12-08T17:01:23.583Z,2.69
2022-12-08T17:04:14.453Z,2.70
2022-12-08T17:06:36.633Z,2.69
2022-12-08T17:09:03.275Z,2.71
2022-12-08T17:11:37.453Z,2.69
2022-12-08T17:14:09.120Z,2.68
2022-12-08T17:16:35.841Z,2.67
2022-12-08T17:19:02.496Z,2.65
2022-12-08T17:21:28.992Z,2.65
2022-12-08T17:23:55.543Z,2.64
2022-12-08T17:26:22.036Z,2.65
2022-12-08T17:29:03.777Z,2.65
2022-12-08T17:31:32.451Z,2.63
2022-12-08T17:34:03.755Z,2.62
2022-12-08T17:36:30.846Z,2.62
2022-12-08T17:39:00.407Z,2.61
2022-12-08T17:41:27.214Z,2.61
2022-12-08T17:43:53.697Z,2.61
2022-12-08T17:46:21.108Z,2.60
2022-12-08T17:48:47.782Z,2.61
2022-12-08T17:51:14.948Z,2.59
2022-12-08T17:53:41.757Z,2.58
2022-12-08T17:56:19.109Z,2.56
2022-12-08T17:58:49.849Z,2.55
2022-12-08T18:01:20.773Z,2.56
2022-12-08T18:03:47.252Z,2.54
2022-12-08T18:06:13.732Z,2.54
2022-12-08T18:08:40.454Z,2.53
2022-12-08T18:11:14.998Z,2.53
2022-12-08T18:13:41.921Z,2.52
2022-12-08T18:16:08.382Z,2.51
2022-12-08T18:18:34.826Z,2.52
2022-12-08T18:21:01.256Z,2.50
2022-12-08T18:23:28.000Z,2.50
2022-12-08T18:25:54.440Z,2.50
2022-12-08T18:28:20.944Z,2.50
2022-12-08T18:30:48.571Z,2.46
2022-12-08T18:33:15.018Z,2.44
2022-12-08T18:35:41.691Z,2.42
2022-12-08T18:38:08.218Z,2.41
2022-12-08T18:40:34.640Z,2.41
2022-12-08T18:43:01.079Z,2.37
2022-12-08T18:45:27.527Z,2.35
2022-12-08T18:47:54.098Z,2.31
2022-12-08T18:50:20.583Z,2.25
2022-12-08T18:52:47.073Z,2.19
2022-12-08T18:55:14.475Z,2.15
2022-12-08T18:57:43.131Z,2.13
2022-12-08T19:00:12.742Z,2.09
2022-12-08T19:02:39.560Z,2.09
2022-12-08T19:05:07.958Z,2.08
2022-12-08T19:07:34.724Z,2.05
2022-12-08T19:10:01.227Z,2.03
2022-12-08T19:12:27.672Z,1.99
2022-12-08T19:14:54.193Z,1.94
2022-12-08T19:17:21.126Z,1.90
2022-12-08T19:19:47.616Z,1.86
2022-12-08T19:22:14.159Z,1.83
2022-12-08T19:24:40.675Z,1.79
2022-12-08T19:27:07.282Z,1.81
2022-12-08T19:29:34.208Z,1.78
2022-12-08T19:32:01.065Z,1.75
2022-12-08T19:34:28.157Z,1.69
2022-12-08T19:36:54.993Z,1.67
2022-12-08T19:39:42.559Z,1.63
2022-12-08T19:42:49.904Z,1.58
2022-12-08T19:45:20.997Z,1.53
2022-12-08T19:47:48.509Z,1.48
2022-12-08T19:50:35.322Z,1.44
2022-12-08T19:53:04.143Z,1.40
2022-12-08T19:55:31.190Z,1.38
2022-12-08T19:57:58.584Z,1.33
2022-12-08T20:00:25.595Z,1.29
2022-12-08T20:02:52.522Z,1.24
2022-12-08T20:05:19.523Z,1.18
2022-12-08T20:07:46.195Z,1.15
2022-12-08T20:10:20.189Z,1.15
2022-12-08T20:12:46.913Z,1.11
2022-12-08T20:15:15.048Z,1.07
2022-12-08T20:17:42.625Z,1.04
2022-12-08T20:20:12.119Z,1.01
2022-12-08T20:22:38.897Z,0.99
2022-12-08T20:25:06.155Z,0.98
2022-12-08T20:27:33.499Z,0.94
2022-12-08T20:30:00.278Z,0.93
2022-12-08T20:32:27.099Z,0.87
2022-12-08T20:34:53.941Z,0.81
2022-12-08T20:37:20.610Z,0.79
2022-12-08T20:39:47.148Z,0.73
2022-12-08T20:42:14.147Z,0.73
2022-12-08T20:44:44.657Z,0.70
2022-12-08T20:47:12.689Z,0.68
2022-12-08T20:49:39.669Z,0.66
2022-12-08T20:52:06.667Z,0.68
2022-12-08T20:54:33.825Z,0.66
2022-12-08T20:57:01.699Z,0.65
2022-12-08T20:59:28.594Z,0.62
2022-12-08T21:01:55.856Z,0.60
2022-12-08T21:04:23.378Z,0.59
2022-12-08T21:06:50.288Z,0.52
2022-12-08T21:09:17.297Z,0.48
2022-12-08T21:11:44.783Z,0.45
2022-12-08T21:14:11.451Z,0.45
2022-12-08T21:16:38.309Z,0.42
2022-12-08T21:19:06.233Z,0.40
2022-12-08T21:21:33.044Z,0.36
2022-12-08T21:23:59.716Z,0.33
2022-12-08T21:26:26.523Z,0.32
2022-12-08T21:28:56.489Z,0.31
2022-12-08T21:31:23.565Z,0.26
2022-12-08T21:33:50.207Z,0.27
2022-12-08T21:36:20.703Z,0.25
2022-12-08T21:42:13.051Z,0.19
2022-12-08T21:44:56.030Z,0.14
2022-12-08T21:58:35.396Z,0.04
2022-12-08T22:01:24.100Z,0.03
2022-12-08T22:04:10.178Z,0.01
2022-12-08T22:06:49.736Z,0.02
2022-12-08T22:09:21.576Z,0.00
2022-12-08T22:15:49.711Z,-0.11
2022-12-08T22:35:15.884Z,-0.29
2022-12-08T22:50:35.346Z,-0.29
2022-12-08T22:53:01.774Z,-0.30
2022-12-08T22:55:28.148Z,-0.32
2022-12-08T22:57:54.987Z,-0.36
2022-12-08T23:00:21.726Z,-0.37
2022-12-08T23:02:48.365Z,-0.38
2022-12-08T23:07:42.942Z,-0.41
2022-12-08T23:10:11.030Z,-0.43
2022-12-08T23:12:37.867Z,-0.45
2022-12-08T23:15:04.857Z,-0.49
2022-12-08T23:17:31.423Z,-0.51
2022-12-08T23:19:58.069Z,-0.54
2022-12-08T23:22:24.528Z,-0.56
2022-12-08T23:24:50.919Z,-0.56
2022-12-08T23:27:17.841Z,-0.55
2022-12-08T23:29:44.307Z,-0.56
2022-12-08T23:32:11.220Z,-0.59
2022-12-08T23:34:37.968Z,-0.61
2022-12-08T23:37:04.478Z,-0.63
2022-12-08T23:39:30.842Z,-0.66
2022-12-08T23:41:57.407Z,-0.69
2022-12-08T23:44:23.951Z,-0.72
2022-12-08T23:46:50.855Z,-0.73
2022-12-08T23:49:17.722Z,-0.75
2022-12-08T23:51:44.159Z,-0.74
2022-12-08T23:54:10.711Z,-0.75
2022-12-08T23:56:37.110Z,-0.77
2022-12-08T23:59:04.153Z,-0.78
